• Join FlightAware (Why Join?)
  • Login
  • US Flag 
04:30AM EDT


 

Airport Tracker/Info


-or-


 

Live Flight TrackerFlight Track Log ✈ N612CT ✈ 16-Sep-2013 ✈ KAPF - KTLH

Flight Track Log - Related Links

Times and Time Zones

All times are in EDT time to prevent confusion due to time zone crossing. See the N612CT flight status page for this flight to view local times or setup timezone preferences in your user account.

Time Position Orientation Groundspeed Altitude Reporting Facility
EDT Latitude Longitude Course Direction KTS MPH feet Rate Location/Type
05:18PM 26.3790 -81.9074 355° North  Level Estimated
05:19PM 26.4216 -81.9050 North  Level FlightAware Approximate
05:20PM 26.4641 -81.9026 North  Level FlightAware Approximate
05:21PM 26.5067 -81.9003 North  Level FlightAware Approximate
05:22PM 26.5492 -81.8979 North  Level FlightAware Approximate
05:23PM 26.5917 -81.8955 North  Level FlightAware Approximate
05:24PM 26.6343 -81.8931 North  Level FlightAware Approximate
05:25PM 26.6768 -81.8907 North  Level FlightAware Approximate
05:25PM 26.6872 -81.8783 North 160 184 10,000  Level Miami Center
05:26PM 26.7194 -81.8883 North  Level FlightAware Approximate
05:26PM 26.7331 -81.8825 355° North 160 184 10,000  Level Miami Center
05:27PM 26.7619 -81.8858 North  Level FlightAware Approximate
05:27PM 26.7872 -81.8872 356° North 165 190 10,000  Level Miami Center
05:28PM 26.8038 -81.8835 North  Level FlightAware Approximate
05:28PM 26.8308 -81.8914 355° North 165 190 10,000  Level Miami Center
05:29PM 26.8457 -81.8811 North  Level FlightAware Approximate
05:29PM 26.8767 -81.8981 353° North 165 190 10,000  Level Miami Center
05:30PM 26.9267 -81.9025 355° North 170 196 10,000  Level Miami Center
05:31PM 26.9744 -81.9069 355° North 170 196 10,000  Level Miami Center
05:32PM 27.0142 -81.9086 358° North 185 213 10,000  Level Miami Center
05:33PM 27.0617 -81.9178 350° North 185 213 10,000  Level Miami Center
05:34PM 27.0992 -81.9194 358° North 174 200 10,000  Level Miami Center
05:35PM 27.1553 -81.9264 354° North 174 200 10,000  Level Miami Center
05:36PM 27.2031 -81.9308 355° North 169 194 10,000  Level Miami Center
05:37PM 27.2489 -81.9353 355° North 169 194 10,000  Level Miami Center
05:38PM 27.2967 -81.9397 355° North 164 189 10,100  Climbing Miami Center
05:39PM 27.3444 -81.9464 353° North 164 189 10,100  Level Miami Center
05:40PM 27.3925 -81.9508 355° North 164 189 10,100  Level Miami Center
05:41PM 27.4381 -81.9553 355° North 159 183 10,100  Level Miami Center
05:42PM 27.4839 -81.9597 355° North 159 183 10,100  Level Miami Center
05:43PM 27.5317 -81.9664 353° North 159 183 10,100  Level Miami Center
05:44PM 27.5775 -81.9686 358° North 159 183 10,100  Level Miami Center
05:45PM 27.6231 -81.9753 353° North 159 183 10,100 -60 Level Miami Center
05:46PM 27.6772 -81.9775 358° North 159 183 10,000 -60 Descending Miami Center
05:47PM 27.7272 -81.9844 353° North 170 196 10,000  Level Miami Center
05:48PM 27.7750 -81.9892 355° North 170 196 10,000  Level Miami Center
05:49PM 27.8144 -81.9956 352° North 165 190 10,000  Level Miami Center
05:50PM 27.8600 -82.0022 353° North 165 190 10,000  Level Miami Center
05:50PM 27.9000 -82.0000 North 169 194 10,000  Level Tampa TRACON
05:51PM 27.9500 -82.0167 344° North 167 192 10,000  Level Tampa TRACON
05:52PM 27.9833 -82.0167 360° North 168 193 10,000  Level Tampa TRACON
05:53PM 28.0333 -82.0500 330° Northwest 171 197 10,000  Level Tampa TRACON
05:54PM 28.0833 -82.0500 360° North 164 189 10,000  Level Tampa TRACON
05:55PM 28.1167 -82.0667 336° Northwest 165 190 10,000  Level Tampa TRACON
05:56PM 28.1667 -82.0833 344° North 170 196 10,000  Level Tampa TRACON
05:58PM 28.2167 -82.0833 360° North 168 193 10,000  Level Tampa TRACON
05:59PM 28.2667 -82.1000 344° North 166 191 10,000  Level Tampa TRACON
06:00PM 28.3167 -82.1000 360° North 166 191 10,000  Level Tampa TRACON
06:01PM 28.3500 -82.1167 336° Northwest 168 193 10,000  Level Tampa TRACON
06:02PM 28.4000 -82.1333 344° North 166 191 10,000  Level Tampa TRACON
06:03PM 28.4500 -82.1333 360° North 160 184 10,000  Level Tampa TRACON
06:04PM 28.4833 -82.1500 336° Northwest 161 185 10,000  Level Tampa TRACON
06:05PM 28.5167 -82.1833 319° Northwest 171 197 10,000  Level Tampa TRACON
06:05PM 28.5500 -82.2167 319° Northwest 165 190 10,000  Level Tampa TRACON
06:08PM 28.6056 -82.3108 304° West 165 190 10,000  Level Jacksonville Center
06:09PM 28.6392 -82.3508 314° West 175 201 10,000  Level Jacksonville Center
06:10PM 28.6728 -82.3933 312° West 179 206 10,000  Level Jacksonville Center
06:11PM 28.7083 -82.4311 317° Northwest 175 201 10,000  Level Jacksonville Center
06:12PM 28.7439 -82.4711 315° West 175 201 10,000  Level Jacksonville Center
06:13PM 28.7733 -82.5089 312° West 178 205 10,000  Level Jacksonville Center
06:14PM 28.8153 -82.5536 317° Northwest 178 205 10,000  Level Jacksonville Center
06:15PM 28.8508 -82.5914 317° Northwest 177 204 10,000  Level Jacksonville Center
06:16PM 28.8864 -82.6317 315° West 177 204 10,000  Level Jacksonville Center
06:17PM 28.9197 -82.6672 317° Northwest 177 204 10,000  Level Jacksonville Center
06:18PM 28.9553 -82.7075 315° West 180 207 10,000  Level Jacksonville Center
06:19PM 28.9889 -82.7478 314° West 181 208 10,000  Level Jacksonville Center
06:20PM 29.0244 -82.7858 317° Northwest 183 211 10,000  Level Jacksonville Center
06:20PM 29.0556 -82.8189 317° Northwest 182 209 10,000  Level Jacksonville Center
06:21PM 29.0683 -82.8333 315° West 178 205 10,000  Level Jacksonville Center
06:21PM 29.0911 -82.8594 315° West 177 204 10,000  Level Jacksonville Center
06:22PM 29.1267 -82.8997 315° West 177 204 10,000  Level Jacksonville Center
06:23PM 29.1622 -82.9378 317° Northwest 177 204 10,000  Level Jacksonville Center
06:24PM 29.1956 -82.9758 315° West 177 204 10,000  Level Jacksonville Center
06:25PM 29.2331 -83.0186 315° West 177 204 10,000  Level Jacksonville Center
06:26PM 29.2686 -83.0592 315° West 177 204 10,000  Level Jacksonville Center
06:27PM 29.3039 -83.0997 315° West 177 204 10,000  Level Jacksonville Center
06:28PM 29.3353 -83.1356 315° West 177 204 10,000  Level Jacksonville Center
06:29PM 29.3728 -83.1761 317° Northwest 177 204 10,000  Level Jacksonville Center
06:30PM 29.4081 -83.2167 315° West 177 204 10,000  Level Jacksonville Center
06:31PM 29.4456 -83.2575 317° Northwest 172 198 10,000  Level Jacksonville Center
06:32PM 29.4789 -83.2981 313° West 172 198 10,000  Level Jacksonville Center
06:33PM 29.5161 -83.3389 316° Northwest 172 198 10,000  Level Jacksonville Center
06:34PM 29.5517 -83.3797 315° West 172 198 10,000  Level Jacksonville Center
06:35PM 29.5889 -83.4203 317° Northwest 172 198 10,000  Level Jacksonville Center
06:36PM 29.6242 -83.4611 315° West 172 198 10,000  Level Jacksonville Center
06:37PM 29.6597 -83.5019 315° West 172 198 10,000  Level Jacksonville Center
06:38PM 29.6969 -83.5428 316° Northwest 172 198 10,000  Level Jacksonville Center
06:39PM 29.7322 -83.5839 315° West 172 198 10,000  Level Jacksonville Center
06:40PM 29.7675 -83.6247 315° West 172 198 10,000  Level Jacksonville Center
06:41PM 29.8028 -83.6656 315° West 172 198 10,000  Level Jacksonville Center
06:42PM 29.8358 -83.7042 315° West 172 198 10,000  Level Jacksonville Center
06:43PM 29.8692 -83.7453 313° West 172 198 10,000  Level Jacksonville Center
06:44PM 29.9064 -83.7839 318° Northwest 172 198 10,000 -120 Level Jacksonville Center
06:45PM 29.9417 -83.8250 315° West 172 198 9,800 -540 Descending Jacksonville Center
06:46PM 29.9789 -83.8686 315° West 178 205 9,000 -780 Descending Jacksonville Center
06:47PM 30.0181 -83.9144 315° West 183 211 8,300 -780 Descending Jacksonville Center
06:48PM 30.0575 -83.9606 315° West 195 224 7,500 -840 Descending Jacksonville Center
06:49PM 30.0967 -84.0042 316° Northwest 195 224 6,700 -840 Descending Jacksonville Center
06:50PM 30.1381 -84.0503 316° Northwest 195 224 5,900 -840 Descending Jacksonville Center
06:52PM 30.1747 -84.0905 316° Northwest  Level FlightAware Approximate
06:59PM 30.3833 -84.3500 311° West  Level FlightAware Approximate
07:00PM 30.3967 -84.3509 311° West  Level Estimated
07:01PM 30.3967 -84.3509 311° West  Level Estimated
07:02PM 30.3967 -84.3509 311° West  Level Estimated